createdAt,value
2018-08-10T00:00:40.332Z,0
2018-08-10T00:01:41.013Z,0
2018-08-10T00:02:41.680Z,0
2018-08-10T00:03:42.345Z,0
2018-08-10T00:04:43.012Z,0
2018-08-10T00:05:43.680Z,0
2018-08-10T00:07:46.008Z,0
2018-08-10T00:08:59.441Z,0
2018-08-10T00:10:17.726Z,0
2018-08-10T00:11:36.048Z,0
2018-08-10T00:13:38.383Z,0
2018-08-10T00:14:39.049Z,0
2018-08-10T00:16:59.243Z,0
2018-08-10T00:17:59.910Z,0
2018-08-10T00:19:23.242Z,0
2018-08-10T00:21:01.602Z,0
2018-08-10T00:22:02.273Z,0
2018-08-10T00:24:04.664Z,0
2018-08-10T00:25:48.096Z,0
2018-08-10T00:26:48.765Z,0
2018-08-10T00:27:49.430Z,0
2018-08-10T00:28:50.951Z,0
2018-08-10T00:30:04.261Z,0
2018-08-10T00:31:04.929Z,0
2018-08-10T00:32:05.597Z,0
2018-08-10T00:35:09.596Z,0
2018-08-10T00:36:10.274Z,0
2018-08-10T00:37:10.953Z,0
2018-08-10T00:38:11.631Z,0
2018-08-10T00:39:12.310Z,0
2018-08-10T00:40:12.990Z,0
2018-08-10T00:41:13.712Z,0
2018-08-10T00:42:14.389Z,0
2018-08-10T00:43:15.066Z,0
2018-08-10T00:44:15.745Z,0
2018-08-10T00:45:16.422Z,0
2018-08-10T00:46:17.101Z,0
2018-08-10T00:47:17.779Z,0
2018-08-10T00:48:18.459Z,0
2018-08-10T00:49:19.137Z,0
2018-08-10T00:50:19.816Z,0
2018-08-10T00:51:20.494Z,0
2018-08-10T00:52:21.170Z,0
2018-08-10T00:55:25.208Z,0
2018-08-10T00:56:25.886Z,0
2018-08-10T00:57:26.606Z,0
2018-08-10T00:58:27.284Z,0
2018-08-10T01:02:22.270Z,0
2018-08-10T01:03:22.949Z,0
2018-08-10T01:08:42.920Z,0
2018-08-10T01:09:43.599Z,0
2018-08-10T01:10:44.277Z,0
2018-08-10T01:11:44.957Z,0
2018-08-10T01:12:45.636Z,0
2018-08-10T01:13:46.314Z,0
2018-08-10T01:14:46.992Z,0
2018-08-10T01:15:47.673Z,0
2018-08-10T01:16:48.350Z,0
2018-08-10T01:17:49.028Z,0
2018-08-10T01:18:49.718Z,0
2018-08-10T01:19:50.398Z,0
2018-08-10T01:20:51.078Z,0
2018-08-10T01:21:51.757Z,0
2018-08-10T01:22:52.438Z,0
2018-08-10T01:23:53.115Z,0
2018-08-10T01:24:53.794Z,0
2018-08-10T01:25:54.472Z,0
2018-08-10T01:26:55.150Z,0
2018-08-10T01:27:55.828Z,0
2018-08-10T01:28:56.604Z,0
2018-08-10T01:29:57.187Z,0
2018-08-10T01:30:57.867Z,0
2018-08-10T01:31:58.548Z,0
2018-08-10T01:32:59.229Z,0
2018-08-10T01:33:59.902Z,0
2018-08-10T01:35:00.582Z,0
2018-08-10T01:36:01.258Z,0
2018-08-10T01:37:01.939Z,0
2018-08-10T01:39:04.330Z,0
2018-08-10T01:40:04.998Z,0
2018-08-10T01:50:43.305Z,0
2018-08-10T01:51:43.984Z,0
2018-08-10T01:52:44.665Z,0
2018-08-10T01:53:45.343Z,0
2018-08-10T01:54:46.025Z,0
2018-08-10T02:04:49.590Z,0
2018-08-10T02:05:50.311Z,0
2018-08-10T02:06:50.987Z,0
2018-08-10T02:09:05.426Z,0
2018-08-10T02:13:06.066Z,0
2018-08-10T02:17:20.723Z,0
2018-08-10T02:18:34.035Z,0
2018-08-10T02:19:34.919Z,0
2018-08-10T02:21:49.956Z,0
2018-08-10T02:27:11.894Z,0
2018-08-10T02:28:12.560Z,0
2018-08-10T02:29:25.938Z,0
2018-08-10T02:31:19.488Z,0
2018-08-10T02:32:32.806Z,0
2018-08-10T02:36:26.730Z,0
2018-08-10T02:43:12.333Z,0
2018-08-10T02:44:55.765Z,0
2018-08-10T02:48:12.627Z,0
2018-08-10T02:49:26.004Z,0
2018-08-10T02:51:40.982Z,0
2018-08-10T02:52:47.921Z,0
2018-08-10T02:54:01.356Z,0
2018-08-10T02:56:57.986Z,0
2018-08-10T02:57:58.667Z,0
2018-08-10T02:59:00.389Z,0
2018-08-10T03:02:34.912Z,0
2018-08-10T03:06:58.297Z,0
2018-08-10T03:10:08.879Z,0
2018-08-10T03:11:09.556Z,0
2018-08-10T03:13:49.688Z,0
2018-08-10T03:15:03.062Z,0
2018-08-10T03:16:46.610Z,0
2018-08-10T03:17:59.984Z,0
2018-08-10T03:19:18.425Z,0
2018-08-10T03:20:19.090Z,0
2018-08-10T03:21:19.960Z,0
2018-08-10T03:22:20.655Z,0
2018-08-10T03:25:09.636Z,4
2018-08-10T03:26:10.309Z,4
2018-08-10T03:28:30.404Z,0
2018-08-10T03:34:42.003Z,8
2018-08-10T03:35:42.678Z,8
2018-08-10T03:36:43.357Z,8
2018-08-10T03:37:44.037Z,8
2018-08-10T03:38:44.761Z,12
2018-08-10T03:39:45.435Z,12
2018-08-10T03:40:46.158Z,12
2018-08-10T03:41:46.837Z,16
2018-08-10T03:42:47.518Z,16
2018-08-10T03:43:48.192Z,20
2018-08-10T03:44:48.872Z,20
2018-08-10T03:45:49.549Z,24
2018-08-10T03:46:50.228Z,24
2018-08-10T03:47:50.904Z,28
2018-08-10T03:48:51.583Z,36
2018-08-10T03:49:52.262Z,40
2018-08-10T03:51:35.632Z,44
2018-08-10T03:52:36.339Z,40
2018-08-10T03:53:38.015Z,40
2018-08-10T03:55:01.346Z,48
2018-08-10T03:56:02.024Z,48
2018-08-10T03:57:02.693Z,48
2018-08-10T04:01:33.732Z,76
2018-08-10T04:04:31.804Z,96
2018-08-10T04:05:32.484Z,100
2018-08-10T04:07:15.853Z,104
2018-08-10T04:08:39.343Z,112
2018-08-10T04:10:22.827Z,124
2018-08-10T04:13:45.857Z,160
2018-08-10T04:16:17.820Z,196
2018-08-10T04:17:56.224Z,228
2018-08-10T04:20:33.311Z,304
2018-08-10T04:25:02.837Z,388
2018-08-10T04:26:36.200Z,424
2018-08-10T04:28:09.626Z,464
2018-08-10T04:30:34.620Z,536
2018-08-10T04:34:58.212Z,692
2018-08-10T04:35:59.084Z,668
2018-08-10T04:40:06.017Z,488
2018-08-10T04:41:19.375Z,460
2018-08-10T04:42:20.094Z,432
2018-08-10T04:43:20.762Z,372
2018-08-10T04:48:55.767Z,252
2018-08-10T04:50:09.186Z,224
2018-08-10T04:54:55.364Z,212
2018-08-10T04:58:22.396Z,444
2018-08-10T05:00:20.793Z,440
2018-08-10T05:02:23.129Z,500
2018-08-10T05:05:27.152Z,432
2018-08-10T05:06:27.831Z,416
2018-08-10T05:07:46.150Z,404
2018-08-10T05:09:09.599Z,404
2018-08-10T05:14:05.583Z,488
2018-08-10T05:19:28.157Z,1396
2018-08-10T05:25:44.879Z,1788
2018-08-10T05:26:45.747Z,1848
2018-08-10T05:28:48.086Z,1908
2018-08-10T05:29:48.805Z,2016
2018-08-10T05:33:58.383Z,3168
2018-08-10T05:42:38.613Z,3664
2018-08-10T05:43:39.290Z,3744
2018-08-10T05:47:44.981Z,4348
2018-08-10T05:49:47.325Z,4624
2018-08-10T05:51:49.666Z,4252
2018-08-10T05:52:51.144Z,3612
2018-08-10T05:54:46.444Z,2840
2018-08-10T05:58:25.756Z,2444
2018-08-10T05:59:39.072Z,2332
2018-08-10T06:00:52.412Z,2112
2018-08-10T06:02:05.755Z,2104
2018-08-10T06:03:06.435Z,1988
2018-08-10T06:04:07.138Z,2164
2018-08-10T06:05:08.191Z,2032
2018-08-10T06:06:08.879Z,2008
2018-08-10T06:07:09.557Z,2116
2018-08-10T06:08:32.904Z,2524
2018-08-10T06:11:09.998Z,3892
2018-08-10T06:16:39.143Z,5236
2018-08-10T06:17:39.816Z,5480
2018-08-10T06:19:38.459Z,6452
2018-08-10T06:20:39.090Z,5944
2018-08-10T06:24:40.008Z,3912
2018-08-10T06:25:41.896Z,3900
2018-08-10T06:29:51.515Z,3620
2018-08-10T06:30:52.188Z,2956
2018-08-10T06:31:52.857Z,2752
2018-08-10T06:33:11.186Z,3432
2018-08-10T06:34:11.921Z,3804
2018-08-10T06:36:51.871Z,2316
2018-08-10T06:37:52.541Z,1868
2018-08-10T06:40:24.392Z,1576
2018-08-10T06:41:25.063Z,1796
2018-08-10T06:42:48.404Z,2392
2018-08-10T06:44:01.827Z,3168
2018-08-10T06:45:42.821Z,3368
2018-08-10T06:50:01.498Z,5348
2018-08-10T06:51:02.227Z,5968
2018-08-10T06:52:43.171Z,7248
2018-08-10T06:53:43.847Z,8396
2018-08-10T06:55:27.327Z,16992
2018-08-10T06:58:49.275Z,13176
2018-08-10T06:59:49.952Z,15800
2018-08-10T07:00:50.636Z,17248
2018-08-10T07:01:51.331Z,17152
2018-08-10T07:02:52.014Z,15656
2018-08-10T07:03:52.689Z,15108
2018-08-10T07:04:53.396Z,14108
2018-08-10T07:06:06.720Z,12600
2018-08-10T07:07:07.396Z,40672
2018-08-10T07:08:08.078Z,25056
2018-08-10T07:09:08.790Z,56448
2018-08-10T07:10:09.465Z,48096
2018-08-10T07:11:10.140Z,45536
2018-08-10T07:12:10.858Z,29056
2018-08-10T07:13:11.651Z,22144
2018-08-10T07:14:12.242Z,13696
2018-08-10T07:15:12.956Z,19648
2018-08-10T07:16:13.650Z,14808
2018-08-10T07:17:14.324Z,20096
2018-08-10T07:18:14.999Z,18816
2018-08-10T07:19:15.676Z,14000
2018-08-10T07:20:16.353Z,15844
2018-08-10T07:21:17.028Z,18080
2018-08-10T07:22:17.703Z,26816
2018-08-10T07:23:19.389Z,32544
2018-08-10T07:24:20.066Z,28672
2018-08-10T07:25:20.739Z,35680
2018-08-10T07:26:21.428Z,32512
2018-08-10T07:27:22.163Z,42176
2018-08-10T07:28:22.895Z,34336
2018-08-10T07:29:23.584Z,49952
2018-08-10T07:30:24.272Z,71296
2018-08-10T07:31:24.958Z,66688
2018-08-10T07:32:25.646Z,60608
2018-08-10T07:33:26.334Z,64224
2018-08-10T07:34:27.023Z,51840
2018-08-10T07:35:27.711Z,55008
2018-08-10T07:36:28.398Z,43072
2018-08-10T07:37:29.086Z,40672
2018-08-10T07:38:29.784Z,30176
2018-08-10T07:39:30.464Z,33504
2018-08-10T07:40:31.151Z,19584
2018-08-10T07:41:31.842Z,47424
2018-08-10T07:42:32.532Z,64416
2018-08-10T07:43:33.215Z,71552
2018-08-10T07:44:33.903Z,69056
2018-08-10T07:45:34.590Z,68384
2018-08-10T07:47:36.944Z,65024
2018-08-10T07:48:37.620Z,65856
2018-08-10T07:49:38.296Z,71200
2018-08-10T07:50:38.974Z,70304
2018-08-10T07:51:39.692Z,67200
2018-08-10T07:52:40.370Z,64416
2018-08-10T07:53:41.045Z,51424
2018-08-10T07:54:41.722Z,28064
2018-08-10T07:55:42.400Z,13444
2018-08-10T07:56:43.079Z,10928
2018-08-10T07:57:43.757Z,10268
2018-08-10T07:58:44.434Z,9884
2018-08-10T07:59:45.112Z,9520
2018-08-10T08:00:45.790Z,9060
2018-08-10T08:01:46.470Z,8852
2018-08-10T08:02:47.145Z,8800
2018-08-10T08:03:47.823Z,8208
2018-08-10T08:04:48.503Z,8428
2018-08-10T08:05:49.178Z,8052
2018-08-10T08:06:49.862Z,5336
2018-08-10T08:07:50.532Z,8252
2018-08-10T08:08:51.212Z,7900
2018-08-10T08:09:51.955Z,6776
2018-08-10T08:10:52.658Z,5800
2018-08-10T08:11:53.339Z,6840
2018-08-10T08:12:54.060Z,7304
2018-08-10T08:13:54.737Z,7184
2018-08-10T08:14:55.415Z,7188
2018-08-10T08:15:56.093Z,7080
2018-08-10T08:16:56.850Z,6956
2018-08-10T08:17:57.528Z,6824
2018-08-10T08:18:58.176Z,6680
2018-08-10T08:19:58.946Z,6604
2018-08-10T08:20:59.602Z,6608
2018-08-10T08:22:00.280Z,6396
2018-08-10T08:23:00.958Z,6360
2018-08-10T08:24:01.638Z,6200
2018-08-10T08:25:02.319Z,6220
2018-08-10T08:26:02.999Z,6132
2018-08-10T08:27:03.694Z,6556
2018-08-10T08:28:04.355Z,6284
2018-08-10T08:29:05.034Z,6796
2018-08-10T08:30:05.714Z,6480
2018-08-10T08:31:06.395Z,6032
2018-08-10T08:32:07.117Z,6304
2018-08-10T08:33:07.795Z,6480
2018-08-10T08:34:08.477Z,6768
2018-08-10T08:35:09.223Z,6360
2018-08-10T08:36:09.880Z,6736
2018-08-10T08:37:10.559Z,6772
2018-08-10T08:38:11.301Z,6584
2018-08-10T08:39:11.987Z,6452
2018-08-10T08:40:12.693Z,6440
2018-08-10T08:41:13.375Z,6468
2018-08-10T08:42:14.088Z,6284
2018-08-10T08:43:14.773Z,6200
2018-08-10T08:44:15.450Z,6300
2018-08-10T08:45:16.234Z,6324
2018-08-10T08:46:16.988Z,6312
2018-08-10T08:47:17.577Z,6112
2018-08-10T08:48:18.257Z,5712
2018-08-10T08:49:18.934Z,6132
2018-08-10T08:50:19.613Z,6388
2018-08-10T08:51:20.291Z,6804
2018-08-10T08:52:20.971Z,7428
2018-08-10T08:53:21.651Z,6956
2018-08-10T08:54:22.329Z,6852
2018-08-10T08:55:23.009Z,6624
2018-08-10T08:56:23.737Z,6248
2018-08-10T08:57:24.416Z,6020
2018-08-10T08:58:25.095Z,5920
2018-08-10T08:59:25.786Z,5872
2018-08-10T09:00:26.503Z,5780
2018-08-10T09:01:27.180Z,5744
2018-08-10T09:02:27.859Z,5728
2018-08-10T09:03:28.540Z,5740
2018-08-10T09:04:29.219Z,5768
2018-08-10T09:05:29.899Z,5800
2018-08-10T09:06:30.576Z,5784
2018-08-10T09:07:31.298Z,5648
2018-08-10T09:08:31.934Z,5556
2018-08-10T09:09:32.614Z,5604
2018-08-10T09:10:33.293Z,5904
2018-08-10T09:11:33.973Z,3824
2018-08-10T09:12:34.653Z,5540
2018-08-10T09:13:35.335Z,5512
2018-08-10T09:14:36.015Z,5416
2018-08-10T09:15:36.696Z,5336
2018-08-10T09:16:37.417Z,5304
2018-08-10T09:17:38.120Z,5296
2018-08-10T09:18:38.815Z,5232
2018-08-10T09:19:39.495Z,5264
2018-08-10T09:20:40.173Z,5272
2018-08-10T09:21:40.853Z,5252
2018-08-10T09:22:41.529Z,5092
2018-08-10T09:23:42.209Z,5068
2018-08-10T09:24:42.933Z,5048
2018-08-10T09:25:43.616Z,5004
2018-08-10T09:26:44.295Z,5152
2018-08-10T09:27:44.976Z,4156
2018-08-10T09:28:45.655Z,5324
2018-08-10T09:29:46.332Z,5816
2018-08-10T09:30:47.047Z,5568
2018-08-10T09:31:47.736Z,5480
2018-08-10T09:32:48.413Z,5988
2018-08-10T09:33:49.092Z,6296
2018-08-10T09:34:49.805Z,6232
2018-08-10T09:35:50.495Z,6184
2018-08-10T09:36:51.174Z,6064
2018-08-10T09:37:51.855Z,5588
2018-08-10T09:38:52.537Z,3756
2018-08-10T09:39:53.216Z,5240
2018-08-10T09:40:53.894Z,5248
2018-08-10T09:41:54.572Z,5088
2018-08-10T09:42:55.251Z,4868
2018-08-10T09:43:55.931Z,4720
2018-08-10T09:44:56.629Z,4680
2018-08-10T09:45:57.350Z,4604
2018-08-10T09:46:58.059Z,4564
2018-08-10T09:47:58.792Z,4772
2018-08-10T09:48:59.510Z,4924
2018-08-10T09:50:00.234Z,5056
2018-08-10T09:51:00.912Z,5256
2018-08-10T09:52:01.591Z,4740
2018-08-10T09:53:02.313Z,4372
2018-08-10T09:54:02.993Z,4656
2018-08-10T09:55:03.675Z,4644
2018-08-10T09:56:04.394Z,4788
2018-08-10T09:57:05.064Z,4900
2018-08-10T09:58:05.744Z,5220
2018-08-10T09:59:06.420Z,5692
2018-08-10T10:00:07.097Z,5868
2018-08-10T10:01:07.776Z,5628
2018-08-10T10:02:08.457Z,5020
2018-08-10T10:03:09.207Z,4676
2018-08-10T10:04:09.903Z,4648
2018-08-10T10:05:10.582Z,4536
2018-08-10T10:06:11.272Z,4736
2018-08-10T10:07:11.983Z,4836
2018-08-10T10:08:12.662Z,4780
2018-08-10T10:09:13.341Z,4728
2018-08-10T10:10:14.019Z,4604
2018-08-10T10:11:14.697Z,4324
2018-08-10T10:12:15.375Z,4308
2018-08-10T10:13:16.053Z,4560
2018-08-10T10:14:16.730Z,4672
2018-08-10T10:15:17.409Z,4580
2018-08-10T10:16:18.089Z,4728
2018-08-10T10:17:18.803Z,5096
2018-08-10T10:18:19.449Z,5348
2018-08-10T10:19:20.128Z,5424
2018-08-10T10:20:20.805Z,5144
2018-08-10T10:21:21.484Z,4944
2018-08-10T10:22:22.163Z,5244
2018-08-10T10:23:22.843Z,5340
2018-08-10T10:24:23.566Z,5092
2018-08-10T10:25:24.245Z,3600
2018-08-10T10:26:24.923Z,4960
2018-08-10T10:27:25.604Z,4812
2018-08-10T10:28:26.282Z,2884
2018-08-10T10:29:26.959Z,2640
2018-08-10T10:30:27.639Z,2848
2018-08-10T10:31:28.317Z,4152
2018-08-10T10:32:28.994Z,4196
2018-08-10T10:33:29.672Z,4180
2018-08-10T10:34:30.350Z,2792
2018-08-10T10:35:31.031Z,2680
2018-08-10T10:36:31.758Z,2824
2018-08-10T10:37:32.436Z,3084
2018-08-10T10:38:33.158Z,4792
2018-08-10T10:39:33.838Z,4008
2018-08-10T10:40:34.517Z,5000
2018-08-10T10:41:35.269Z,4940
2018-08-10T10:42:35.872Z,4984
2018-08-10T10:43:36.549Z,5040
2018-08-10T10:44:37.227Z,4412
2018-08-10T10:45:37.904Z,4992
2018-08-10T10:46:38.581Z,4848
2018-08-10T10:47:39.258Z,4744
2018-08-10T10:48:39.935Z,5380
2018-08-10T10:49:40.655Z,5800
2018-08-10T10:50:41.336Z,6256
2018-08-10T10:51:42.011Z,4960
2018-08-10T10:52:42.689Z,5996
2018-08-10T10:53:43.367Z,5664
2018-08-10T10:54:44.044Z,5892
2018-08-10T10:55:44.765Z,6072
2018-08-10T10:56:45.541Z,5632
2018-08-10T10:57:46.119Z,5800
2018-08-10T10:58:46.796Z,5580
2018-08-10T10:59:47.470Z,5020
2018-08-10T11:00:48.145Z,4652
2018-08-10T11:01:48.821Z,4428
2018-08-10T11:02:49.499Z,4876
2018-08-10T11:03:50.176Z,5404
2018-08-10T11:04:50.854Z,5304
2018-08-10T11:05:51.554Z,4956
2018-08-10T11:06:52.252Z,4992
2018-08-10T11:07:52.929Z,4868
2018-08-10T11:08:53.605Z,5156
2018-08-10T11:09:54.280Z,5744
2018-08-10T11:10:54.957Z,6148
2018-08-10T11:11:55.633Z,6260
2018-08-10T11:12:56.309Z,6064
2018-08-10T11:13:57.012Z,5580
2018-08-10T11:14:57.695Z,5280
2018-08-10T11:15:58.371Z,4968
2018-08-10T11:16:59.047Z,4732
2018-08-10T11:17:59.800Z,4664
2018-08-10T11:19:00.443Z,4520
2018-08-10T11:20:01.141Z,4672
2018-08-10T11:21:01.843Z,4552
2018-08-10T11:22:02.518Z,2736
2018-08-10T11:23:03.193Z,3460
2018-08-10T11:24:03.889Z,4052
2018-08-10T11:25:04.598Z,3620
2018-08-10T11:26:05.321Z,4956
2018-08-10T11:27:05.936Z,5568
2018-08-10T11:28:06.612Z,6120
2018-08-10T11:29:07.287Z,5892
2018-08-10T11:30:07.990Z,5308
2018-08-10T11:31:08.635Z,5104
2018-08-10T11:32:09.370Z,5060
2018-08-10T11:33:09.985Z,4764
2018-08-10T11:34:10.677Z,4608
2018-08-10T11:35:11.381Z,4476
2018-08-10T11:36:12.058Z,4416
2018-08-10T11:37:12.734Z,4400
2018-08-10T11:38:13.440Z,4368
2018-08-10T11:39:14.130Z,3960
2018-08-10T11:40:14.806Z,4116
2018-08-10T11:41:15.524Z,4120
2018-08-10T11:42:16.204Z,4292
2018-08-10T11:43:16.879Z,3100
2018-08-10T11:44:17.553Z,2504
2018-08-10T11:45:18.227Z,2756
2018-08-10T11:46:18.903Z,4488
2018-08-10T11:47:19.612Z,4308
2018-08-10T11:48:20.301Z,3840
2018-08-10T11:49:20.978Z,4164
2018-08-10T11:50:21.698Z,4152
2018-08-10T11:51:22.372Z,4164
2018-08-10T11:52:23.053Z,4192
2018-08-10T11:53:23.725Z,4244
2018-08-10T11:54:24.401Z,3188
2018-08-10T11:55:25.077Z,2616
2018-08-10T11:56:25.801Z,4328
2018-08-10T11:57:26.482Z,4476
2018-08-10T11:58:27.145Z,4632
2018-08-10T11:59:27.820Z,4884
2018-08-10T12:00:28.497Z,4892
2018-08-10T12:01:29.175Z,4872
2018-08-10T12:02:29.849Z,4828
2018-08-10T12:03:30.526Z,4668
2018-08-10T12:04:31.199Z,4644
2018-08-10T12:05:31.874Z,4484
2018-08-10T12:06:32.551Z,3620
2018-08-10T12:07:33.226Z,4708
2018-08-10T12:08:33.902Z,4888
2018-08-10T12:09:34.581Z,5284
2018-08-10T12:10:35.252Z,5372
2018-08-10T12:11:35.927Z,4920
2018-08-10T12:12:36.678Z,4904
2018-08-10T12:13:37.277Z,4788
2018-08-10T12:14:37.952Z,4760
2018-08-10T12:15:38.629Z,2744
2018-08-10T12:16:39.305Z,5016
2018-08-10T12:17:39.984Z,5428
2018-08-10T12:18:40.702Z,5828
2018-08-10T12:19:41.378Z,6052
2018-08-10T12:20:42.084Z,6056
2018-08-10T12:21:42.774Z,6384
2018-08-10T12:22:43.448Z,6420
2018-08-10T12:23:44.143Z,6256
2018-08-10T12:24:44.903Z,3592
2018-08-10T12:25:45.554Z,5524
2018-08-10T12:26:46.276Z,5096
2018-08-10T12:27:46.956Z,4868
2018-08-10T12:28:47.633Z,4748
2018-08-10T12:29:48.307Z,4700
2018-08-10T12:30:48.982Z,4780
2018-08-10T12:31:49.657Z,4828
2018-08-10T12:32:50.332Z,4872
2018-08-10T12:33:51.009Z,4988
2018-08-10T12:34:51.684Z,5068
2018-08-10T12:35:52.381Z,5200
2018-08-10T12:36:53.037Z,5256
2018-08-10T12:37:53.708Z,5308
2018-08-10T12:38:54.384Z,2588
2018-08-10T12:39:55.058Z,4700
2018-08-10T12:40:55.763Z,4996
2018-08-10T12:41:56.500Z,5064
2018-08-10T12:42:57.184Z,5144
2018-08-10T12:43:57.885Z,5344
2018-08-10T12:44:58.608Z,5292
2018-08-10T12:45:59.284Z,5092
2018-08-10T12:46:59.963Z,4932
2018-08-10T12:48:00.678Z,4912
2018-08-10T12:49:01.401Z,4844
2018-08-10T12:50:02.075Z,4672
2018-08-10T12:51:02.751Z,4564
2018-08-10T12:52:03.426Z,4612
2018-08-10T12:53:04.102Z,4620
2018-08-10T12:54:04.822Z,4700
2018-08-10T12:55:05.497Z,4672
2018-08-10T12:56:06.175Z,4640
2018-08-10T12:57:06.965Z,4616
2018-08-10T12:58:07.565Z,4636
2018-08-10T12:59:08.203Z,4780
2018-08-10T13:00:08.878Z,4800
2018-08-10T13:01:09.556Z,4608
2018-08-10T13:02:10.230Z,4852
2018-08-10T13:03:10.910Z,4916
2018-08-10T13:04:11.580Z,5068
2018-08-10T13:05:12.277Z,5180
2018-08-10T13:06:12.929Z,5388
2018-08-10T13:07:13.604Z,5340
2018-08-10T13:08:14.276Z,5124
2018-08-10T13:09:14.953Z,4972
2018-08-10T13:10:15.977Z,4904
2018-08-10T13:11:16.589Z,4848
2018-08-10T13:12:17.264Z,4892
2018-08-10T13:13:17.940Z,4904
2018-08-10T13:14:18.613Z,4916
2018-08-10T13:15:19.288Z,4920
2018-08-10T13:16:19.965Z,4900
2018-08-10T13:17:20.687Z,4900
2018-08-10T13:18:21.405Z,4880
2018-08-10T13:19:22.036Z,4840
2018-08-10T13:20:22.712Z,4872
2018-08-10T13:21:23.388Z,4876
2018-08-10T13:22:24.107Z,4936
2018-08-10T13:23:24.782Z,5004
2018-08-10T13:24:25.465Z,5052
2018-08-10T13:25:26.165Z,5112
2018-08-10T13:26:26.854Z,5096
2018-08-10T13:27:27.529Z,5096
2018-08-10T13:28:28.205Z,5116
2018-08-10T13:29:28.925Z,5148
2018-08-10T13:30:29.603Z,5204
2018-08-10T13:31:30.284Z,4364
2018-08-10T13:32:30.997Z,2184
2018-08-10T13:33:31.671Z,2080
2018-08-10T13:34:32.347Z,1980
2018-08-10T13:35:33.074Z,4128
2018-08-10T13:36:33.699Z,5152
2018-08-10T13:37:34.374Z,5264
2018-08-10T13:38:35.050Z,5308
2018-08-10T13:39:35.728Z,5640
2018-08-10T13:40:36.400Z,5772
2018-08-10T13:41:37.079Z,5608
2018-08-10T13:42:37.754Z,5460
2018-08-10T13:43:38.460Z,2724
2018-08-10T13:44:39.106Z,2704
2018-08-10T13:45:39.783Z,2660
2018-08-10T13:46:40.506Z,3328
2018-08-10T13:47:41.182Z,6428
2018-08-10T13:48:41.857Z,6584
2018-08-10T13:49:42.531Z,6728
2018-08-10T13:50:43.257Z,3536
2018-08-10T13:51:43.933Z,6524
2018-08-10T13:52:44.608Z,6584
2018-08-10T13:53:45.287Z,6124
2018-08-10T13:54:45.960Z,5776
2018-08-10T13:55:46.637Z,5416
2018-08-10T13:56:47.311Z,4884
2018-08-10T13:57:47.985Z,4760
2018-08-10T13:58:48.756Z,5552
2018-08-10T13:59:49.338Z,4780
2018-08-10T14:00:50.014Z,5556
2018-08-10T14:01:50.688Z,5448
2018-08-10T14:02:51.363Z,5452
2018-08-10T14:03:52.043Z,5472
2018-08-10T14:04:52.728Z,2116
2018-08-10T14:05:53.517Z,5500
2018-08-10T14:06:54.107Z,2864
2018-08-10T14:07:54.784Z,2960
2018-08-10T14:08:55.462Z,4040
2018-08-10T14:09:56.138Z,6524
2018-08-10T14:10:56.812Z,6488
2018-08-10T14:11:57.539Z,6372
2018-08-10T14:12:58.212Z,6200
2018-08-10T14:13:58.888Z,6132
2018-08-10T14:14:59.562Z,5848
2018-08-10T14:16:00.350Z,6196
2018-08-10T14:17:00.914Z,6264
2018-08-10T14:18:01.635Z,6164
2018-08-10T14:19:02.312Z,5900
2018-08-10T14:20:03.032Z,5776
2018-08-10T14:21:03.710Z,5708
2018-08-10T14:22:04.429Z,5636
2018-08-10T14:23:05.105Z,5668
2018-08-10T14:24:05.781Z,5716
2018-08-10T14:25:06.460Z,5948
2018-08-10T14:26:07.132Z,6148
2018-08-10T14:27:07.806Z,2864
2018-08-10T14:28:08.481Z,2768
2018-08-10T14:29:09.155Z,2608
2018-08-10T14:30:09.829Z,2424
2018-08-10T14:31:10.504Z,2500
2018-08-10T14:32:11.180Z,5528
2018-08-10T14:33:11.849Z,2128
2018-08-10T14:34:12.523Z,2232
2018-08-10T14:35:13.198Z,2620
2018-08-10T14:36:13.877Z,3096
2018-08-10T14:37:14.598Z,6836
2018-08-10T14:38:15.274Z,6800
2018-08-10T14:39:15.949Z,6756
2018-08-10T14:40:16.627Z,5636
2018-08-10T14:41:17.327Z,7028
2018-08-10T14:42:17.977Z,7620
2018-08-10T14:43:18.653Z,8116
2018-08-10T14:44:19.329Z,8204
2018-08-10T14:45:20.004Z,8184
2018-08-10T14:46:20.721Z,6080
2018-08-10T14:47:21.430Z,4212
2018-08-10T14:48:22.072Z,5684
2018-08-10T14:49:22.792Z,6664
2018-08-10T14:50:23.470Z,6000
2018-08-10T14:51:24.146Z,2848
2018-08-10T14:52:24.821Z,2744
2018-08-10T14:53:25.495Z,2872
2018-08-10T14:54:26.170Z,6244
2018-08-10T14:55:26.844Z,6552
2018-08-10T14:56:27.520Z,7040
2018-08-10T14:57:28.196Z,7212
2018-08-10T14:58:28.897Z,7496
2018-08-10T14:59:29.595Z,7452
2018-08-10T15:00:30.324Z,7300
2018-08-10T15:01:30.987Z,6984
2018-08-10T15:02:31.706Z,6436
2018-08-10T15:03:32.382Z,6268
2018-08-10T15:04:33.059Z,6392
2018-08-10T15:05:33.736Z,5064
2018-08-10T15:06:34.472Z,3176
2018-08-10T15:07:35.089Z,3084
2018-08-10T15:08:35.765Z,2888
2018-08-10T15:09:36.439Z,2660
2018-08-10T15:10:37.161Z,2444
2018-08-10T15:11:37.836Z,2272
2018-08-10T15:12:38.900Z,2100
2018-08-10T15:13:39.222Z,2088
2018-08-10T15:14:39.897Z,3080
2018-08-10T15:15:40.574Z,3812
2018-08-10T15:16:41.252Z,2160
2018-08-10T15:17:41.967Z,2344
2018-08-10T15:18:42.688Z,5856
2018-08-10T15:19:43.408Z,6220
2018-08-10T15:20:44.086Z,6532
2018-08-10T15:21:44.762Z,6708
2018-08-10T15:22:45.450Z,6648
2018-08-10T15:23:46.160Z,6752
2018-08-10T15:24:46.836Z,6692
2018-08-10T15:25:47.511Z,6896
2018-08-10T15:26:48.188Z,7104
2018-08-10T15:27:48.864Z,4316
2018-08-10T15:28:49.582Z,4800
2018-08-10T15:29:50.259Z,6568
2018-08-10T15:30:51.003Z,6868
2018-08-10T15:31:51.653Z,6912
2018-08-10T15:32:52.331Z,5872
2018-08-10T15:33:53.010Z,5576
2018-08-10T15:34:53.732Z,4828
2018-08-10T15:35:54.417Z,6300
2018-08-10T15:36:55.125Z,6620
2018-08-10T15:37:55.802Z,6984
2018-08-10T15:38:56.478Z,7156
2018-08-10T15:39:57.153Z,7228
2018-08-10T15:40:57.873Z,7464
2018-08-10T15:41:58.549Z,7588
2018-08-10T15:42:59.227Z,7544
2018-08-10T15:43:59.901Z,4148
2018-08-10T15:45:00.578Z,3828
2018-08-10T15:46:01.258Z,5808
2018-08-10T15:47:01.982Z,6568
2018-08-10T15:48:02.655Z,6228
2018-08-10T15:49:03.333Z,5928
2018-08-10T15:50:04.009Z,2552
2018-08-10T15:51:04.692Z,3052
2018-08-10T15:52:05.406Z,2484
2018-08-10T15:53:06.086Z,4360
2018-08-10T15:54:06.757Z,2656
2018-08-10T15:55:07.432Z,3216
2018-08-10T15:56:08.169Z,3728
2018-08-10T15:57:08.830Z,3528
2018-08-10T15:58:09.507Z,2984
2018-08-10T15:59:10.206Z,2684
2018-08-10T16:00:10.902Z,4180
2018-08-10T16:01:11.577Z,2500
2018-08-10T16:02:12.305Z,4364
2018-08-10T16:03:12.927Z,5300
2018-08-10T16:04:13.604Z,5416
2018-08-10T16:05:14.279Z,5488
2018-08-10T16:06:14.955Z,5136
2018-08-10T16:07:15.631Z,5872
2018-08-10T16:08:16.306Z,6200
2018-08-10T16:09:16.985Z,6440
2018-08-10T16:10:17.701Z,6112
2018-08-10T16:11:18.378Z,5932
2018-08-10T16:12:19.055Z,4984
2018-08-10T16:13:19.730Z,3092
2018-08-10T16:14:20.406Z,2916
2018-08-10T16:15:21.081Z,3152
2018-08-10T16:16:21.755Z,2864
2018-08-10T16:17:22.430Z,3304
2018-08-10T16:18:23.106Z,5244
2018-08-10T16:19:23.780Z,4560
2018-08-10T16:20:24.457Z,5100
2018-08-10T16:21:25.133Z,5108
2018-08-10T16:22:25.808Z,5308
2018-08-10T16:23:26.484Z,5356
2018-08-10T16:24:27.159Z,3628
2018-08-10T16:25:27.834Z,3232
2018-08-10T16:26:28.510Z,3064
2018-08-10T16:27:29.182Z,2708
2018-08-10T16:28:29.856Z,2504
2018-08-10T16:29:30.531Z,2352
2018-08-10T16:30:31.205Z,2268
2018-08-10T16:31:31.881Z,2272
2018-08-10T16:32:32.553Z,2316
2018-08-10T16:33:33.229Z,2368
2018-08-10T16:34:33.905Z,2500
2018-08-10T16:35:34.582Z,2700
2018-08-10T16:36:35.313Z,2728
2018-08-10T16:37:36.019Z,2688
2018-08-10T16:38:36.693Z,2832
2018-08-10T16:39:37.368Z,2996
2018-08-10T16:40:38.062Z,3048
2018-08-10T16:41:38.760Z,2960
2018-08-10T16:42:39.435Z,2828
2018-08-10T16:43:40.110Z,2600
2018-08-10T16:44:40.783Z,2700
2018-08-10T16:45:41.455Z,2240
2018-08-10T16:46:42.130Z,3768
2018-08-10T16:47:42.803Z,3476
2018-08-10T16:48:43.482Z,2600
2018-08-10T16:49:44.195Z,2056
2018-08-10T16:50:44.905Z,3608
2018-08-10T16:51:45.542Z,3576
2018-08-10T16:52:46.216Z,3176